Terminal Aerodrome Forecast
Issued by NWS Jackson, MS

Home | Current Version | Previous Version | Text Only | Print | Product List | Glossary On
Versions: 1 2 3 4 5 6 7 8 9 10 11 12 13
955
FTUS44 KMEG 112320
TAFTUP
TAF
KTUP 112320Z 1200/1224 22007KT P6SM SCT150
     FM120500 33010G16KT P6SM SCT035 BKN150
      TEMPO 1211/1215 BKN035
     FM121500 36014G20KT P6SM FEW250
     FM122200 34009KT P6SM SKC=

USA.gov is the U.S. government's official web portal to all federal, state and local government web resources and services.